Latest Weather Observations for Learmonth

IDW60801

Issued at 1:32 pm WST Sunday 29 May 2016 (issued every 30 minutes, with the page automatically refreshed every 10 minutes)

About weather observations | Map of weather stations | Latest weather observations for WA | Other Formats
Station Details ID: 005007 Name: LEARMONTH AIRPORT Lat: -22.24 Lon: 114.10 Height: 5.0 m
Data from the previous 72 hours. | See also: Recent months at Learmonth
Date/Time
WST
Temp
°C
App
Temp
°C
Dew
Point
Rel
Hum
%
Delta-T
°C
Wind Press
QNH
hPa
Press
MSL
hPa
Rain
since 9 am
mm
Dir
 
Spd
km/h
Gust
km/h
Spd
kts
Gust
kts
29/01:30pm 25.8 20.8 4.8 26 10.6 E 20 30 11 16 1013.3 - 0.0
29/01:00pm 26.6 21.1 4.0 23 11.3 S 22 32 12 17 1014.0 - 0.0
29/12:30pm 25.5 20.4 3.9 24 10.7 SSE 20 28 11 15 1014.6 - 0.0
29/12:00pm 25.5 19.9 3.6 24 10.8 SSE 22 32 12 17 1015.1 1015.0 0.0
29/11:30am 25.6 20.3 6.9 30 9.8 SSE 24 33 13 18 1015.5 - 0.0
29/11:00am 24.6 18.9 6.9 32 9.2 SSE 26 33 14 18 1016.1 - 0.0
29/10:30am 23.6 17.8 9.6 41 7.6 S 30 41 16 22 1016.6 - 0.0
29/10:00am 22.6 17.1 10.6 46 6.6 SSE 30 37 16 20 1016.5 - 0.0
29/09:30am 21.5 16.7 11.8 54 5.4 SSE 28 37 15 20 1016.5 - 0.0
29/09:00am 20.2 16.4 12.3 60 4.4 S 24 30 13 16 1016.9 1016.8 0.0
29/08:30am 18.2 15.4 12.6 70 3.1 S 19 24 10 13 1016.5 - 0.0
29/08:00am 15.4 13.7 12.5 83 1.6 SSW 13 17 7 9 1016.4 - 0.0
29/07:30am 14.3 12.2 12.3 88 1.1 SW 15 17 8 9 1016.5 - 0.0
29/07:00am 13.5 12.4 11.8 89 0.9 SW 9 13 5 7 1016.2 - 0.0
29/06:30am 13.3 11.4 11.8 91 0.8 SSW 13 15 7 8 1015.6 - 0.0
29/06:00am 13.5 11.6 11.8 89 0.9 SW 13 17 7 9 1015.5 1015.4 0.0
29/05:30am 13.7 11.4 11.8 88 1.0 SSW 15 17 8 9 1015.2 - 0.0
29/05:00am 13.4 11.0 11.5 88 1.0 SSW 15 17 8 9 1015.0 - 0.0
29/04:30am 13.8 11.8 11.4 85 1.3 SSW 13 17 7 9 1015.2 - 0.0
29/04:00am 14.7 11.9 11.5 81 1.7 SSW 17 19 9 10 1015.2 - 0.0
29/03:30am 14.5 12.0 11.1 80 1.8 SSW 15 19 8 10 1015.3 - 0.0
29/03:00am 14.5 12.0 10.9 79 1.9 SSW 15 17 8 9 1015.2 1015.1 0.0
29/02:30am 15.3 12.4 11.0 75 2.3 SSW 17 20 9 11 1015.4 - 0.0
29/02:00am 15.9 12.6 10.8 71 2.7 SSW 19 22 10 12 1015.3 - 0.0
29/01:30am 16.3 12.7 10.7 69 3.0 SSW 20 24 11 13 1015.4 - 0.0
29/01:00am 16.7 12.7 10.5 67 3.3 SSW 22 26 12 14 1015.1 - 0.0
29/12:30am 17.1 13.1 10.3 64 3.6 SSW 22 28 12 15 1015.1 - 0.0
29/12:00am 17.6 13.5 10.0 61 4.0 SSW 22 28 12 15 1015.1 1015.0 0.0
 
Date/Time
WST
Temp
°C
App
Temp
°C
Dew
Point
Rel
Hum
%
Delta-T
°C
Wind Press
QNH
hPa
Press
MSL
hPa
Rain
since 9 am
mm
Dir
 
Spd
km/h
Gust
km/h
Spd
kts
Gust
kts
28/11:30pm 18.0 13.5 9.9 59 4.3 SSW 24 30 13 16 1015.4 - 0.0
28/11:00pm 17.9 13.3 9.5 58 4.4 SSW 24 30 13 16 1015.4 - 0.0
28/10:30pm 18.2 13.9 9.2 55 4.7 SSW 22 30 12 16 1015.5 - 0.0
28/10:00pm 18.9 15.0 9.6 54 4.9 SW 20 28 11 15 1015.8 - 0.0
28/09:30pm 19.0 16.6 12.6 66 3.6 SW 17 20 9 11 1015.7 - 0.0
28/09:00pm 19.5 17.1 12.5 64 3.9 WSW 17 19 9 10 1015.7 1015.6 0.0
28/08:30pm 20.1 17.6 12.4 61 4.3 WSW 17 19 9 10 1015.7 - 0.0
28/08:00pm 21.0 18.6 12.7 59 4.7 SW 17 20 9 11 1015.5 - 0.0
28/07:30pm 21.6 18.3 12.8 57 5.0 SW 22 28 12 15 1015.2 - 0.0
28/07:00pm 20.9 16.3 6.7 39 7.2 SW 20 24 11 13 1015.0 - 0.0
28/06:30pm 20.3 15.2 0.7 27 8.8 SSW 17 19 9 10 1014.5 - 0.0
28/06:00pm 23.2 18.1 0.5 22 10.4 S 17 20 9 11 1014.1 1014.0 0.0
28/05:30pm 25.7 19.4 -0.9 17 12.1 S 22 30 12 16 1013.9 - 0.0
28/05:00pm 26.9 20.1 0.6 18 12.4 SSW 26 32 14 17 1013.4 - 0.0
28/04:30pm 27.4 21.1 3.9 22 11.8 SSW 26 37 14 20 1013.3 - 0.0
28/04:00pm 27.9 22.3 3.5 21 12.2 S 22 33 12 18 1013.2 - 0.0
28/03:30pm 27.9 21.5 3.2 20 12.3 SSW 26 30 14 16 1013.2 - 0.0
28/03:00pm 28.1 22.0 2.5 19 12.6 S 24 37 13 20 1013.2 1013.1 0.0
28/02:30pm 28.3 21.0 2.6 19 12.7 SSW 30 37 16 20 1013.4 - 0.0
28/02:00pm 27.9 21.0 2.4 19 12.5 S 28 39 15 21 1013.7 - 0.0
28/01:30pm 28.1 21.1 2.1 18 12.7 S 28 41 15 22 1014.1 - 0.0
28/01:00pm 28.1 20.9 0.9 17 13.0 S 28 37 15 20 1014.5 - 0.0
28/12:30pm 27.8 20.6 1.0 17 12.8 S 28 39 15 21 1015.0 - 0.0
28/12:00pm 26.9 19.0 1.0 18 12.3 SSE 32 39 17 21 1015.6 1015.5 0.0
28/11:30am 26.5 18.1 1.3 19 12.0 SSE 35 43 19 23 1015.9 - 0.0
28/11:00am 26.3 19.0 2.7 21 11.5 SSE 30 39 16 21 1016.5 - 0.0
28/10:30am 24.7 19.3 6.2 30 9.5 SSE 24 30 13 16 1016.9 - 0.0
28/10:00am 23.6 18.1 5.8 31 9.0 SSE 24 33 13 18 1017.2 - 0.0
28/09:30am 23.1 18.0 6.2 33 8.6 S 22 28 12 15 1017.5 - 0.0
28/09:00am 22.0 17.1 7.0 38 7.7 S 22 28 12 15 1017.5 1017.4 0.0
28/08:00am 18.5 16.0 10.9 61 4.1 SSW 15 19 8 10 1017.0 - 0.0
28/07:30am 16.6 14.5 11.0 69 3.0 SSW 13 15 7 8 1016.8 - 0.0
28/07:00am 15.7 13.5 10.8 72 2.6 SW 13 17 7 9 1016.7 - 0.0
28/06:30am 15.4 12.9 10.9 74 2.4 SW 15 17 8 9 1016.6 - 0.0
28/06:00am 15.8 13.2 10.7 71 2.7 SW 15 17 8 9 1016.5 1016.4 0.0
28/05:30am 16.7 14.1 10.7 67 3.2 SSW 15 17 8 9 1016.3 - 0.0
28/05:00am 17.0 14.1 11.0 68 3.2 SW 17 19 9 10 1016.2 - 0.0
28/04:30am 16.7 13.9 11.5 71 2.8 SSW 17 19 9 10 1016.0 - 0.0
28/04:00am 17.1 14.4 11.6 70 3.0 SW 17 19 9 10 1016.0 - 0.0
28/03:30am 17.3 15.5 12.0 71 2.9 SW 13 17 7 9 1016.0 - 0.0
28/03:00am 17.8 15.8 12.8 72 2.8 SSW 15 20 8 11 1016.2 1016.1 0.0
28/02:30am 18.2 16.1 12.4 69 3.2 SSW 15 19 8 10 1016.3 - 0.0
28/02:00am 18.9 15.9 12.0 64 3.8 SSW 19 24 10 13 1016.5 - 0.0
28/01:30am 19.3 16.0 11.7 61 4.2 SSW 20 28 11 15 1016.6 - 0.0
28/01:00am 19.7 16.8 12.2 62 4.2 SSW 19 24 10 13 1016.7 - 0.0
28/12:30am 20.6 17.5 13.4 63 4.1 SSW 22 30 12 16 1016.9 - 0.0
28/12:00am 21.1 17.9 15.2 69 3.5 SSW 26 32 14 17 1016.7 1016.6 0.0
 
Date/Time
WST
Temp
°C
App
Temp
°C
Dew
Point
Rel
Hum
%
Delta-T
°C
Wind Press
QNH
hPa
Press
MSL
hPa
Rain
since 9 am
mm
Dir
 
Spd
km/h
Gust
km/h
Spd
kts
Gust
kts
27/11:30pm 21.4 19.2 16.8 75 2.8 SSW 24 32 13 17 1016.7 - 0.0
27/11:00pm 22.1 19.9 17.0 73 3.1 SSW 24 32 13 17 1016.8 - 0.0
27/10:30pm 22.2 20.0 17.0 72 3.2 SSW 24 32 13 17 1016.9 - 0.0
27/10:00pm 22.4 20.5 16.8 70 3.4 SW 22 28 12 15 1016.6 - 0.0
27/09:30pm 22.8 20.7 16.2 66 4.0 SW 22 30 12 16 1016.7 - 0.0
27/09:00pm 23.1 21.3 16.0 64 4.3 SW 20 26 11 14 1016.5 1016.4 0.0
27/08:30pm 23.4 21.4 15.0 59 5.0 SW 19 22 10 12 1016.3 - 0.0
27/08:00pm 23.9 21.3 13.8 53 5.9 SW 20 28 11 15 1016.1 - 0.0
27/07:30pm 24.6 20.9 10.3 40 7.9 SW 20 28 11 15 1015.9 - 0.0
27/07:00pm 25.6 21.7 9.5 36 8.8 SW 20 28 11 15 1015.7 - 0.0
27/06:30pm 26.4 21.9 10.2 36 9.0 SW 24 33 13 18 1015.2 - 0.0
27/06:00pm 27.6 23.7 8.8 30 10.3 SW 19 24 10 13 1014.7 1014.6 0.0
27/05:00pm 28.4 24.8 10.0 31 10.3 W 19 26 10 14 1014.0 - 0.0
27/04:30pm 28.9 25.3 10.6 32 10.4 W 20 26 11 14 1013.9 - 0.0
27/04:00pm 30.4 27.3 10.4 29 11.4 WNW 17 24 9 13 1013.8 - 0.0
27/03:30pm 30.2 26.8 10.6 29 11.2 WSW 19 20 10 11 1013.7 - 0.0
27/03:00pm 29.2 26.6 7.8 26 11.6 NNE 11 15 6 8 1013.7 1013.6 0.0
27/02:30pm 30.1 26.6 7.1 23 12.4 ENE 15 19 8 10 1013.6 - 0.0
27/02:00pm 29.4 26.5 6.7 24 12.1 ENE 11 15 6 8 1013.8 - 0.0
27/01:30pm 29.3 26.3 7.7 25 11.7 NNE 13 17 7 9 1014.3 - 0.0
27/01:00pm 28.2 26.4 7.8 27 11.0 NE 7 13 4 7 1014.7 - 0.0
27/12:30pm 28.2 26.0 7.8 27 11.0 NE 9 15 5 8 1015.2 - 0.0
27/12:00pm 27.9 27.2 8.4 29 10.6 S 2 7 1 4 1015.9 1015.8 0.0
27/11:30am 26.2 24.4 8.1 31 9.7 SSE 7 11 4 6 1016.2 - 0.0
27/11:00am 25.3 23.3 8.8 35 8.9 E 9 15 5 8 1016.5 - 0.0
27/10:30am 24.2 21.8 8.7 37 8.3 ESE 11 15 6 8 1016.9 - 0.0
27/10:00am 23.8 21.5 9.1 39 7.9 E 11 17 6 9 1017.0 - 0.0
27/09:30am 23.9 22.4 9.3 39 7.9 ESE 7 15 4 8 1017.2 - 0.0
27/09:00am 22.8 21.0 9.4 42 7.2 SSE 9 17 5 9 1017.2 1017.1 0.0
27/08:30am 21.6 19.9 9.7 46 6.4 SW 9 13 5 7 1017.3 - 0.0
27/08:00am 19.5 17.3 9.2 51 5.4 SW 11 13 6 7 1017.1 - 0.0
27/07:30am 17.1 15.2 9.0 59 4.2 WSW 9 11 5 6 1016.8 - 0.0
27/07:00am 15.9 13.4 8.4 61 3.8 SW 11 13 6 7 1016.8 - 0.0
27/06:30am 16.0 13.5 8.3 60 3.9 WSW 11 13 6 7 1016.7 - 0.0
27/06:00am 16.3 13.8 8.2 58 4.1 SW 11 15 6 8 1016.4 1016.3 0.0
27/05:30am 16.1 12.8 7.9 58 4.1 SW 15 17 8 9 1016.5 - 0.0
27/05:00am 15.7 12.1 8.2 61 3.8 SW 17 19 9 10 1016.4 - 0.0
27/04:30am 15.5 12.9 7.9 60 3.8 SSW 11 13 6 7 1016.4 - 0.0
27/04:00am 16.3 13.4 8.2 58 4.1 SSW 13 15 7 8 1016.4 - 0.0
27/03:30am 17.0 13.3 7.9 55 4.6 SW 17 20 9 11 1016.4 - 0.0
27/03:00am 17.1 13.4 7.8 54 4.7 SW 17 20 9 11 1016.6 1016.5 0.0
27/02:30am 17.1 13.4 7.8 54 4.7 SW 17 20 9 11 1016.8 - 0.0
27/02:00am 16.8 13.0 7.6 54 4.6 SSW 17 19 9 10 1016.9 - 0.0
27/01:30am 17.1 13.4 7.8 54 4.7 SSW 17 19 9 10 1017.1 - 0.0
27/01:00am 17.1 13.3 7.5 53 4.8 SW 17 19 9 10 1017.1 - 0.0
27/12:30am 17.0 13.6 7.6 54 4.7 SSW 15 17 8 9 1016.9 - 0.0
27/12:00am 17.2 13.8 7.7 53 4.8 SSW 15 17 8 9 1017.1 1017.0 0.0
 
Date/Time
WST
Temp
°C
App
Temp
°C
Dew
Point
Rel
Hum
%
Delta-T
°C
Wind Press
QNH
hPa
Press
MSL
hPa
Rain
since 9 am
mm
Dir
 
Spd
km/h
Gust
km/h
Spd
kts
Gust
kts
26/11:30pm 19.0 16.0 7.6 47 5.8 SSW 13 15 7 8 1017.2 - 0.0
26/11:00pm 20.0 15.7 7.2 43 6.5 S 19 24 10 13 1017.4 - 0.0
26/10:30pm 19.8 16.0 7.4 44 6.3 SSW 17 20 9 11 1017.4 - 0.0
26/10:00pm 19.7 15.8 7.0 43 6.4 SSW 17 20 9 11 1017.3 - 0.0
26/09:30pm 19.7 15.8 7.0 43 6.4 SSW 17 19 9 10 1017.3 - 0.0
26/09:00pm 20.4 16.5 7.0 41 6.8 SSW 17 20 9 11 1017.3 1017.2 0.0
26/08:30pm 20.9 16.8 8.0 43 6.7 SSW 19 20 10 11 1017.1 - 0.0
26/08:00pm 21.0 18.3 10.3 50 5.8 SW 15 19 8 10 1017.1 - 0.0
26/07:30pm 22.3 19.3 10.6 47 6.4 SW 17 20 9 11 1016.8 - 0.0
26/07:00pm 22.4 18.4 8.1 40 7.5 SW 19 20 10 11 1016.5 - 0.0
26/06:30pm 22.4 18.9 7.3 37 7.8 S 15 17 8 9 1016.1 - 0.0
26/06:00pm 24.4 20.9 7.2 33 9.0 S 15 17 8 9 1015.8 1015.7 0.0
26/05:30pm 26.3 22.4 7.2 29 10.1 S 17 22 9 12 1015.5 - 0.0
26/05:00pm 27.2 23.0 7.3 28 10.6 S 19 26 10 14 1015.3 - 0.0
26/04:30pm 27.7 23.4 7.8 28 10.7 S 20 28 11 15 1015.1 - 0.0
26/04:00pm 27.8 23.8 8.3 29 10.6 S 19 28 10 15 1014.9 - 0.0
26/03:30pm 28.1 23.6 8.5 29 10.7 SE 22 28 12 15 1014.8 - 0.0
26/03:00pm 27.9 23.8 8.7 30 10.5 SSE 20 28 11 15 1014.9 1014.8 0.0
26/02:30pm 28.2 23.7 8.4 28 10.8 S 22 33 12 18 1015.1 - 0.0
26/02:00pm 27.7 22.3 9.4 31 10.1 S 28 35 15 19 1015.5 - 0.0

Other Formats:

Comma delimited format used in spreadsheet applications
http://www.bom.gov.au/fwo/IDW60801/IDW60801.94302.axf

JavaScript Object Notation format (JSON) in row-major order
http://www.bom.gov.au/fwo/IDW60801/IDW60801.94302.json